Bei Facebook empfehlenBei Twitter postenGoogle plusPinterest

Das Wetter im Erzgebirge am 28.07.2017

Wetter und Klima am 28.07.2017 Holzhau im Erzgebirge (630m ü.NN)
Letzte gemessene Temperatur und Uhrzeit der Messung23:45:00 Uhr10.80 °C
Temperatur (Maximum / Höchstwert) und Uhrzeit der Messung14:00:00 Uhr22.20 °C
Temperatur (Minimum / Tiefstwert) und Uhrzeit der Messung23:45:0010.80 °C
Errechneter Absolutwert der Temperaturschwankungen zwischen Tmin und Tmax des Tages11.40 K
Errechnete Tagesmitteltemperatur15.69479 °C
Gesamt - Niederschlag des Tages (in flüssiger Form)6.73 Liter / m²
Luftdruck (Maximum / Höchstwert) und Zeitpunkt der Messung23:45:00 Uhr1013.30 hPa
Luftdruck (Minimum / Tiefstwert) und Zeitpunkt der Messung05:30:00 Uhr1006.20 hPa
Errechneter Absolutwert der Luftdruckschwankungen des Tages7.10 hPa
Höchste gemessene Windgeschwindigkeit und Uhrzeit der Messung10:30:00 Uhr37.44 km/h
Errechnete Windhäufigkeit in Relation zu den Messwerten des Tages8.33333 %
Niedrigste Windkühle (Windchill) und Zeitpunkt der Messung23:45:00 Uhr10.80 °C
Taupunkt (Maximum / Höchstwert) und Uhrzeit der Messung10:30:00 Uhr15.50 °C
Taupunkt (Minimum / Tiefstwert) und Uhrzeit der Messung23:30:008.80 °C
Anzahl der automatisch eingelesenen Messwerte 96

Detaillierte Wetter- und Klima- Messwerte für den 28.07.2017 in Holzhau im Erzgebirge (630m ü.NN)
ZeitTemperaturLuftdruckRel. LuftfeuchteWindWindrichtungWindchillTaupunktNiederschlag l/m²
23:45:0010.80 °C1013.30 hPa88.00 %8.90 °C6.73
23:30:0010.90 °C1013.30 hPa87.00 %8.80 °C6.73
23:15:0011.30 °C1013.20 hPa87.00 %9.20 °C6.73
23:00:0011.80 °C1013.10 hPa85.00 %9.40 °C6.73
22:45:0012.40 °C1013.20 hPa85.00 %10.00 °C6.73
22:30:0012.50 °C1013.00 hPa85.00 %10.00 °C6.73
22:15:0012.60 °C1012.90 hPa85.00 %10.10 °C6.73
22:00:0012.60 °C1013.00 hPa84.00 %10.00 °C6.73
21:45:0012.90 °C1012.60 hPa83.00 %10.10 °C6.73
21:30:0013.30 °C1012.60 hPa82.00 %10.30 °C6.73
21:15:0013.50 °C1012.40 hPa80.00 %10.10 °C6.73
21:00:0013.90 °C1012.30 hPa78.00 %10.10 °C6.73
20:45:0014.60 °C1012.20 hPa76.00 %10.40 °C6.73
20:30:0015.30 °C1012.00 hPa73.00 %10.50 °C6.73
20:15:0016.30 °C1011.80 hPa70.00 %10.80 °C6.73
20:00:0016.70 °C1011.60 hPa66.00 %10.30 °C6.73
19:45:0016.90 °C1011.50 hPa64.00 %10.10 °C6.73
19:30:0017.80 °C1011.50 hPa63.00 %10.70 °C6.73
19:15:0018.20 °C1011.20 hPa61.00 %10.60 °C6.73
19:00:0018.40 °C1011.30 hPa60.00 %10.50 °C6.73
18:45:0018.30 °C1010.90 hPa59.00 %10.20 °C6.73
18:30:0018.80 °C1010.70 hPa58.00 %10.40 °C6.73
18:15:0018.90 °C1010.70 hPa59.00 %10.70 °C6.73
18:00:0019.30 °C1010.60 hPa59.00 %11.10 °C6.73
17:45:0019.30 °C1010.70 hPa62.00 %11.80 °C6.73
17:30:0019.40 °C1010.60 hPa62.00 %11.90 °C6.73
17:15:0019.60 °C1010.40 hPa65.00 %24.48 km/hN20.40 °C12.80 °C6.73
17:00:0019.30 °C1010.60 hPa67.00 %13.00 °C6.73
16:45:0019.30 °C1010.50 hPa67.00 %13.00 °C6.73
16:30:0020.10 °C1010.50 hPa66.00 %13.60 °C6.73
16:15:0020.60 °C1010.30 hPa68.00 %14.50 °C6.73
16:00:0019.40 °C1010.40 hPa75.00 %14.90 °C6.73
15:45:0017.90 °C1010.50 hPa77.00 %13.80 °C6.73
15:30:0016.80 °C1010.50 hPa80.00 %13.30 °C6.73
15:15:0016.10 °C1010.80 hPa76.00 %11.90 °C6.73
15:00:0018.60 °C1010.80 hPa66.00 %12.10 °C6.73
14:45:0020.90 °C1010.30 hPa60.00 %12.80 °C6.21
14:30:0020.80 °C1010.20 hPa63.00 %13.50 °C6.21
14:15:0021.30 °C1009.90 hPa58.00 %12.70 °C6.21
14:00:0022.20 °C1009.60 hPa59.00 %13.80 °C6.21
13:45:0022.10 °C1009.60 hPa59.00 %13.70 °C6.21
13:30:0021.30 °C1009.60 hPa60.00 %13.20 °C6.21
13:15:0021.30 °C1009.40 hPa60.00 %33.84 km/hWSW22.20 °C13.20 °C6.21
13:00:0020.60 °C1009.30 hPa61.00 %20.88 km/hN21.70 °C12.80 °C6.21
12:45:0020.30 °C1009.10 hPa65.00 %6.48 km/hWNW20.30 °C13.50 °C6.21
12:30:0019.90 °C1009.20 hPa66.00 %30.96 km/hWNW20.60 °C13.40 °C6.21
12:15:0020.10 °C1009.10 hPa69.00 %14.20 °C6.21
12:00:0020.40 °C1009.10 hPa69.00 %14.50 °C6.21
11:45:0020.20 °C1008.90 hPa72.00 %18.00 km/hSW21.30 °C15.00 °C6.21
11:30:0019.70 °C1008.90 hPa73.00 %14.70 °C6.21
11:15:0019.20 °C1008.90 hPa78.00 %15.30 °C6.21
11:00:0018.40 °C1008.80 hPa79.00 %14.70 °C6.21
10:45:0018.40 °C1008.60 hPa81.00 %15.10 °C6.21
10:30:0017.90 °C1008.60 hPa86.00 %37.44 km/hN18.00 °C15.50 °C6.21
10:15:0017.10 °C1008.70 hPa88.00 %15.10 °C6.21
10:00:0016.50 °C1008.60 hPa86.00 %14.20 °C6.21
09:45:0016.60 °C1008.40 hPa88.00 %14.60 °C6.21
09:30:0016.50 °C1008.20 hPa88.00 %14.50 °C6.21
09:15:0016.80 °C1008.10 hPa91.00 %15.30 °C6.21
09:00:0016.20 °C1007.80 hPa94.00 %15.20 °C6.21
08:45:0015.30 °C1007.70 hPa96.00 %14.70 °C6.21
08:30:0014.50 °C1007.60 hPa96.00 %13.90 °C6.21
08:15:0013.90 °C1007.40 hPa96.00 %13.30 °C6.21
08:00:0013.60 °C1007.30 hPa95.00 %12.80 °C6.21
07:45:0013.40 °C1007.10 hPa95.00 %12.60 °C6.21
07:30:0013.30 °C1007.00 hPa95.00 %12.50 °C5.18
07:15:0013.30 °C1006.90 hPa95.00 %12.50 °C4.14
07:00:0013.20 °C1006.80 hPa95.00 %12.40 °C3.11
06:45:0013.30 °C1006.80 hPa95.00 %12.50 °C2.07
06:30:0013.10 °C1006.70 hPa95.00 %12.30 °C1.55
06:15:0012.70 °C1006.60 hPa95.00 %11.90 °C1.55
06:00:0012.50 °C1006.40 hPa95.00 %11.70 °C1.55
05:45:0012.40 °C1006.30 hPa95.00 %11.60 °C1.55
05:30:0012.50 °C1006.20 hPa95.00 %11.70 °C1.55
05:15:0012.40 °C1006.30 hPa95.00 %11.60 °C1.55
05:00:0012.30 °C1006.30 hPa95.00 %11.50 °C1.55
04:45:0012.40 °C1006.20 hPa95.00 %11.60 °C1.55
04:30:0012.40 °C1006.40 hPa95.00 %11.60 °C1.55
04:15:0012.50 °C1006.50 hPa95.00 %11.70 °C1.55
04:00:0012.40 °C1006.40 hPa95.00 %11.60 °C1.55
03:45:0012.30 °C1006.20 hPa95.00 %11.50 °C1.55
03:30:0012.20 °C1006.30 hPa95.00 %11.40 °C1.55
03:15:0012.20 °C1006.30 hPa94.00 %11.30 °C1.55
03:00:0012.30 °C1006.20 hPa94.00 %11.40 °C1.55
02:45:0012.40 °C1006.30 hPa94.00 %11.50 °C1.55
02:30:0012.60 °C1006.30 hPa95.00 %11.80 °C1.55
02:15:0012.60 °C1006.50 hPa95.00 %11.80 °C1.55
02:00:0012.60 °C1006.40 hPa95.00 %11.80 °C1.55
01:45:0012.70 °C1006.40 hPa95.00 %11.90 °C1.55
01:30:0012.80 °C1006.30 hPa95.00 %12.00 °C1.55
01:15:0012.10 °C1006.80 hPa94.00 %18.00 km/hW12.10 °C11.20 °C0.52
01:00:0011.90 °C1006.50 hPa94.00 %11.00 °C 
00:45:0011.90 °C1006.60 hPa94.00 %11.00 °C 
00:30:0011.90 °C1006.30 hPa94.00 %11.00 °C 
00:15:0011.80 °C1006.60 hPa94.00 %10.90 °C 
00:00:0011.90 °C1006.70 hPa93.00 %10.80 °C 

Permanenter Link zu dieser Seite: Wetter im Erzgebirge am 28.07.2017
Performance-Info: Die Erstellung der Seite / Statistik(en) / Tabelle(n) erforderte 5 Datenbankserver-Abfrage(n) und dauerte 95 Millisekunden. (Dieser Messwert ist von der Gesamt-Auslastung des Servers abhängig.)
Erzgebirge - Wetter | Erzgebirge - Wetter (Mobilgeräte) | Komplette Klimadatenbank